sensor_id;sensor_type;location;lat;lon;timestamp;P1;durP1;ratioP1;P2;durP2;ratioP2
41689;SDS011;27372;42.658;23.256;2024-03-25T00:01:53;2.40;;;1.15;;
41689;SDS011;27372;42.658;23.256;2024-03-25T00:04:19;0.93;;;0.90;;
41689;SDS011;27372;42.658;23.256;2024-03-25T00:06:47;0.70;;;0.70;;
41689;SDS011;27372;42.658;23.256;2024-03-25T00:09:12;1.20;;;1.10;;
41689;SDS011;27372;42.658;23.256;2024-03-25T00:11:39;0.77;;;0.77;;
41689;SDS011;27372;42.658;23.256;2024-03-25T00:14:05;0.70;;;0.70;;
41689;SDS011;27372;42.658;23.256;2024-03-25T00:16:31;0.80;;;0.80;;
41689;SDS011;27372;42.658;23.256;2024-03-25T00:18:56;1.65;;;0.93;;
41689;SDS011;27372;42.658;23.256;2024-03-25T00:21:21;0.50;;;0.50;;
41689;SDS011;27372;42.658;23.256;2024-03-25T00:23:47;0.52;;;0.52;;
41689;SDS011;27372;42.658;23.256;2024-03-25T00:26:12;0.60;;;0.60;;
41689;SDS011;27372;42.658;23.256;2024-03-25T00:28:37;1.55;;;0.70;;
41689;SDS011;27372;42.658;23.256;2024-03-25T00:31:03;1.70;;;1.50;;
41689;SDS011;27372;42.658;23.256;2024-03-25T00:33:29;1.00;;;0.90;;
41689;SDS011;27372;42.658;23.256;2024-03-25T00:35:54;0.38;;;0.38;;
41689;SDS011;27372;42.658;23.256;2024-03-25T00:38:20;0.70;;;0.70;;
41689;SDS011;27372;42.658;23.256;2024-03-25T00:40:45;0.90;;;0.90;;
41689;SDS011;27372;42.658;23.256;2024-03-25T00:43:11;1.25;;;0.73;;
41689;SDS011;27372;42.658;23.256;2024-03-25T00:45:37;0.75;;;0.50;;
41689;SDS011;27372;42.658;23.256;2024-03-25T00:48:02;0.60;;;0.60;;
41689;SDS011;27372;42.658;23.256;2024-03-25T00:50:28;0.80;;;0.80;;
41689;SDS011;27372;42.658;23.256;2024-03-25T00:52:54;1.73;;;0.77;;
41689;SDS011;27372;42.658;23.256;2024-03-25T00:55:19;0.80;;;0.80;;
41689;SDS011;27372;42.658;23.256;2024-03-25T00:57:44;0.73;;;0.73;;
41689;SDS011;27372;42.658;23.256;2024-03-25T01:00:10;0.43;;;0.43;;
41689;SDS011;27372;42.658;23.256;2024-03-25T01:02:36;0.65;;;0.63;;
41689;SDS011;27372;42.658;23.256;2024-03-25T01:05:02;0.63;;;0.60;;
41689;SDS011;27372;42.658;23.256;2024-03-25T01:07:30;0.70;;;0.70;;
41689;SDS011;27372;42.658;23.256;2024-03-25T01:09:55;0.55;;;0.52;;
41689;SDS011;27372;42.658;23.256;2024-03-25T01:12:21;0.50;;;0.50;;
41689;SDS011;27372;42.658;23.256;2024-03-25T01:14:46;0.60;;;0.60;;
41689;SDS011;27372;42.658;23.256;2024-03-25T01:17:12;0.60;;;0.60;;
41689;SDS011;27372;42.658;23.256;2024-03-25T01:19:37;0.80;;;0.80;;
41689;SDS011;27372;42.658;23.256;2024-03-25T01:22:03;0.75;;;0.75;;
41689;SDS011;27372;42.658;23.256;2024-03-25T01:24:29;1.40;;;1.00;;
41689;SDS011;27372;42.658;23.256;2024-03-25T01:26:55;0.80;;;0.80;;
41689;SDS011;27372;42.658;23.256;2024-03-25T01:29:20;1.00;;;0.90;;
41689;SDS011;27372;42.658;23.256;2024-03-25T01:31:46;1.45;;;0.90;;
41689;SDS011;27372;42.658;23.256;2024-03-25T01:34:12;1.30;;;0.90;;
41689;SDS011;27372;42.658;23.256;2024-03-25T01:36:37;0.85;;;0.70;;
41689;SDS011;27372;42.658;23.256;2024-03-25T01:39:04;1.63;;;0.90;;
41689;SDS011;27372;42.658;23.256;2024-03-25T01:41:30;0.73;;;0.73;;
41689;SDS011;27372;42.658;23.256;2024-03-25T01:43:56;0.75;;;0.75;;
41689;SDS011;27372;42.658;23.256;2024-03-25T01:46:21;0.98;;;0.88;;
41689;SDS011;27372;42.658;23.256;2024-03-25T01:48:49;0.80;;;0.80;;
41689;SDS011;27372;42.658;23.256;2024-03-25T01:51:15;0.90;;;0.90;;
41689;SDS011;27372;42.658;23.256;2024-03-25T01:53:43;0.80;;;0.80;;
41689;SDS011;27372;42.658;23.256;2024-03-25T01:56:10;1.13;;;0.70;;
41689;SDS011;27372;42.658;23.256;2024-03-25T01:58:38;0.52;;;0.52;;
41689;SDS011;27372;42.658;23.256;2024-03-25T02:01:04;0.43;;;0.43;;
41689;SDS011;27372;42.658;23.256;2024-03-25T02:03:30;0.90;;;0.90;;
41689;SDS011;27372;42.658;23.256;2024-03-25T02:05:57;0.70;;;0.70;;
41689;SDS011;27372;42.658;23.256;2024-03-25T02:08:26;0.90;;;0.73;;
41689;SDS011;27372;42.658;23.256;2024-03-25T02:10:53;0.60;;;0.60;;
41689;SDS011;27372;42.658;23.256;2024-03-25T02:13:28;0.70;;;0.70;;
41689;SDS011;27372;42.658;23.256;2024-03-25T02:15:54;1.10;;;0.80;;
41689;SDS011;27372;42.658;23.256;2024-03-25T02:18:20;1.02;;;0.90;;
41689;SDS011;27372;42.658;23.256;2024-03-25T02:20:46;1.00;;;0.90;;
41689;SDS011;27372;42.658;23.256;2024-03-25T02:23:11;1.77;;;0.80;;
41689;SDS011;27372;42.658;23.256;2024-03-25T02:25:38;1.23;;;0.80;;
41689;SDS011;27372;42.658;23.256;2024-03-25T02:28:05;0.73;;;0.73;;
41689;SDS011;27372;42.658;23.256;2024-03-25T02:30:31;1.63;;;0.80;;
41689;SDS011;27372;42.658;23.256;2024-03-25T02:32:56;0.73;;;0.73;;
41689;SDS011;27372;42.658;23.256;2024-03-25T02:35:22;1.48;;;1.00;;
41689;SDS011;27372;42.658;23.256;2024-03-25T02:37:50;1.00;;;0.90;;
41689;SDS011;27372;42.658;23.256;2024-03-25T02:40:17;0.70;;;0.70;;
41689;SDS011;27372;42.658;23.256;2024-03-25T02:42:43;0.43;;;0.43;;
41689;SDS011;27372;42.658;23.256;2024-03-25T02:45:09;0.70;;;0.70;;
41689;SDS011;27372;42.658;23.256;2024-03-25T02:47:35;1.08;;;0.90;;
41689;SDS011;27372;42.658;23.256;2024-03-25T02:50:00;0.77;;;0.77;;
41689;SDS011;27372;42.658;23.256;2024-03-25T02:52:25;1.10;;;1.00;;
41689;SDS011;27372;42.658;23.256;2024-03-25T02:54:51;0.95;;;0.95;;
41689;SDS011;27372;42.658;23.256;2024-03-25T02:57:16;3.35;;;1.27;;
41689;SDS011;27372;42.658;23.256;2024-03-25T02:59:42;1.08;;;0.98;;
41689;SDS011;27372;42.658;23.256;2024-03-25T03:02:07;1.00;;;1.00;;
41689;SDS011;27372;42.658;23.256;2024-03-25T03:04:32;0.80;;;0.80;;
41689;SDS011;27372;42.658;23.256;2024-03-25T03:06:58;1.13;;;1.10;;
41689;SDS011;27372;42.658;23.256;2024-03-25T03:09:23;0.90;;;0.90;;
41689;SDS011;27372;42.658;23.256;2024-03-25T03:11:49;0.90;;;0.90;;
41689;SDS011;27372;42.658;23.256;2024-03-25T03:14:14;0.80;;;0.80;;
41689;SDS011;27372;42.658;23.256;2024-03-25T03:16:39;1.55;;;1.08;;
41689;SDS011;27372;42.658;23.256;2024-03-25T03:19:05;0.90;;;0.90;;
41689;SDS011;27372;42.658;23.256;2024-03-25T03:21:30;1.40;;;1.20;;
41689;SDS011;27372;42.658;23.256;2024-03-25T03:23:56;1.80;;;1.38;;
41689;SDS011;27372;42.658;23.256;2024-03-25T03:26:21;2.47;;;1.70;;
41689;SDS011;27372;42.658;23.256;2024-03-25T03:28:51;1.50;;;1.38;;
41689;SDS011;27372;42.658;23.256;2024-03-25T03:31:17;1.55;;;1.45;;
41689;SDS011;27372;42.658;23.256;2024-03-25T03:33:43;2.90;;;1.40;;
41689;SDS011;27372;42.658;23.256;2024-03-25T03:36:08;2.30;;;1.50;;
41689;SDS011;27372;42.658;23.256;2024-03-25T03:38:33;2.17;;;1.38;;
41689;SDS011;27372;42.658;23.256;2024-03-25T03:41:00;1.63;;;1.50;;
41689;SDS011;27372;42.658;23.256;2024-03-25T03:43:27;3.05;;;1.67;;
41689;SDS011;27372;42.658;23.256;2024-03-25T03:45:52;1.95;;;1.45;;
41689;SDS011;27372;42.658;23.256;2024-03-25T03:48:19;2.13;;;1.50;;
41689;SDS011;27372;42.658;23.256;2024-03-25T03:50:44;2.17;;;1.65;;
41689;SDS011;27372;42.658;23.256;2024-03-25T03:53:10;3.15;;;1.88;;
41689;SDS011;27372;42.658;23.256;2024-03-25T03:55:36;2.20;;;1.73;;
41689;SDS011;27372;42.658;23.256;2024-03-25T03:58:01;3.22;;;2.28;;
41689;SDS011;27372;42.658;23.256;2024-03-25T04:00:27;2.13;;;1.70;;
41689;SDS011;27372;42.658;23.256;2024-03-25T04:02:53;2.88;;;2.00;;
41689;SDS011;27372;42.658;23.256;2024-03-25T04:05:18;3.20;;;2.38;;
41689;SDS011;27372;42.658;23.256;2024-03-25T04:07:44;4.22;;;2.85;;
41689;SDS011;27372;42.658;23.256;2024-03-25T04:10:09;5.25;;;2.88;;
41689;SDS011;27372;42.658;23.256;2024-03-25T04:12:35;3.50;;;2.38;;
41689;SDS011;27372;42.658;23.256;2024-03-25T04:15:02;3.90;;;2.60;;
41689;SDS011;27372;42.658;23.256;2024-03-25T04:17:28;6.20;;;3.03;;
41689;SDS011;27372;42.658;23.256;2024-03-25T04:19:53;6.57;;;2.85;;
41689;SDS011;27372;42.658;23.256;2024-03-25T04:22:19;4.80;;;3.00;;
41689;SDS011;27372;42.658;23.256;2024-03-25T04:24:44;5.05;;;3.25;;
41689;SDS011;27372;42.658;23.256;2024-03-25T04:27:09;5.03;;;3.40;;
41689;SDS011;27372;42.658;23.256;2024-03-25T04:29:35;5.47;;;3.42;;
41689;SDS011;27372;42.658;23.256;2024-03-25T04:32:01;4.18;;;2.88;;
41689;SDS011;27372;42.658;23.256;2024-03-25T04:34:27;6.13;;;3.78;;
41689;SDS011;27372;42.658;23.256;2024-03-25T04:36:53;5.45;;;3.15;;
41689;SDS011;27372;42.658;23.256;2024-03-25T04:39:19;5.60;;;3.20;;
41689;SDS011;27372;42.658;23.256;2024-03-25T04:41:45;6.38;;;4.15;;
41689;SDS011;27372;42.658;23.256;2024-03-25T04:44:11;6.57;;;3.60;;
41689;SDS011;27372;42.658;23.256;2024-03-25T04:46:36;6.43;;;3.70;;
41689;SDS011;27372;42.658;23.256;2024-03-25T04:49:02;7.32;;;3.97;;
41689;SDS011;27372;42.658;23.256;2024-03-25T04:51:27;5.65;;;3.35;;
41689;SDS011;27372;42.658;23.256;2024-03-25T04:53:53;8.27;;;4.97;;
41689;SDS011;27372;42.658;23.256;2024-03-25T04:56:18;10.70;;;5.80;;
41689;SDS011;27372;42.658;23.256;2024-03-25T04:58:45;9.45;;;4.63;;
41689;SDS011;27372;42.658;23.256;2024-03-25T05:01:11;7.25;;;4.05;;
41689;SDS011;27372;42.658;23.256;2024-03-25T05:03:37;8.40;;;4.47;;
41689;SDS011;27372;42.658;23.256;2024-03-25T05:06:02;8.98;;;5.25;;
41689;SDS011;27372;42.658;23.256;2024-03-25T05:08:31;9.98;;;5.40;;
41689;SDS011;27372;42.658;23.256;2024-03-25T05:10:57;6.60;;;4.10;;
41689;SDS011;27372;42.658;23.256;2024-03-25T05:13:22;11.90;;;5.90;;
41689;SDS011;27372;42.658;23.256;2024-03-25T05:15:51;9.95;;;5.47;;
41689;SDS011;27372;42.658;23.256;2024-03-25T05:18:18;8.50;;;4.70;;
41689;SDS011;27372;42.658;23.256;2024-03-25T05:20:44;9.15;;;5.20;;
41689;SDS011;27372;42.658;23.256;2024-03-25T05:23:09;7.93;;;5.10;;
41689;SDS011;27372;42.658;23.256;2024-03-25T05:25:35;10.23;;;5.80;;
41689;SDS011;27372;42.658;23.256;2024-03-25T05:28:01;8.85;;;5.40;;
41689;SDS011;27372;42.658;23.256;2024-03-25T05:30:28;13.02;;;6.55;;
41689;SDS011;27372;42.658;23.256;2024-03-25T05:32:53;7.90;;;4.63;;
41689;SDS011;27372;42.658;23.256;2024-03-25T05:35:19;12.05;;;5.55;;
41689;SDS011;27372;42.658;23.256;2024-03-25T05:37:46;11.52;;;5.97;;
41689;SDS011;27372;42.658;23.256;2024-03-25T05:40:11;10.52;;;5.68;;
41689;SDS011;27372;42.658;23.256;2024-03-25T05:42:38;11.25;;;6.60;;
41689;SDS011;27372;42.658;23.256;2024-03-25T05:45:06;11.38;;;6.35;;
41689;SDS011;27372;42.658;23.256;2024-03-25T05:47:34;10.15;;;5.60;;
41689;SDS011;27372;42.658;23.256;2024-03-25T05:53:25;10.20;;;6.18;;
41689;SDS011;27372;42.658;23.256;2024-03-25T05:55:51;10.95;;;6.18;;
41689;SDS011;27372;42.658;23.256;2024-03-25T05:58:17;8.45;;;4.95;;
41689;SDS011;27372;42.658;23.256;2024-03-25T06:00:42;9.35;;;5.75;;
41689;SDS011;27372;42.658;23.256;2024-03-25T06:03:07;11.05;;;7.38;;
41689;SDS011;27372;42.658;23.256;2024-03-25T06:05:33;9.32;;;5.75;;
41689;SDS011;27372;42.658;23.256;2024-03-25T06:07:58;12.20;;;6.53;;
41689;SDS011;27372;42.658;23.256;2024-03-25T06:10:23;10.57;;;6.10;;
41689;SDS011;27372;42.658;23.256;2024-03-25T06:12:49;9.80;;;5.78;;
41689;SDS011;27372;42.658;23.256;2024-03-25T06:15:14;10.55;;;6.13;;
41689;SDS011;27372;42.658;23.256;2024-03-25T06:17:39;8.77;;;5.65;;
41689;SDS011;27372;42.658;23.256;2024-03-25T06:20:05;11.82;;;5.45;;
41689;SDS011;27372;42.658;23.256;2024-03-25T06:22:31;8.95;;;5.82;;
41689;SDS011;27372;42.658;23.256;2024-03-25T06:24:56;11.00;;;6.50;;
41689;SDS011;27372;42.658;23.256;2024-03-25T06:27:21;8.48;;;5.57;;
41689;SDS011;27372;42.658;23.256;2024-03-25T06:29:47;10.27;;;5.47;;
41689;SDS011;27372;42.658;23.256;2024-03-25T06:32:12;8.65;;;5.20;;
41689;SDS011;27372;42.658;23.256;2024-03-25T06:34:56;9.60;;;6.05;;
41689;SDS011;27372;42.658;23.256;2024-03-25T06:37:25;13.95;;;5.47;;
41689;SDS011;27372;42.658;23.256;2024-03-25T06:39:51;10.77;;;6.60;;
41689;SDS011;27372;42.658;23.256;2024-03-25T06:42:18;8.75;;;5.38;;
41689;SDS011;27372;42.658;23.256;2024-03-25T06:44:44;10.38;;;6.15;;
41689;SDS011;27372;42.658;23.256;2024-03-25T06:47:13;10.77;;;6.38;;
41689;SDS011;27372;42.658;23.256;2024-03-25T06:49:39;10.95;;;6.15;;
41689;SDS011;27372;42.658;23.256;2024-03-25T06:52:04;10.35;;;6.07;;
41689;SDS011;27372;42.658;23.256;2024-03-25T06:54:30;10.20;;;6.90;;
41689;SDS011;27372;42.658;23.256;2024-03-25T06:56:55;7.30;;;5.25;;
41689;SDS011;27372;42.658;23.256;2024-03-25T06:59:21;9.13;;;5.90;;
41689;SDS011;27372;42.658;23.256;2024-03-25T07:01:47;11.23;;;6.10;;
41689;SDS011;27372;42.658;23.256;2024-03-25T07:04:12;9.93;;;5.97;;
41689;SDS011;27372;42.658;23.256;2024-03-25T07:06:38;9.10;;;5.57;;
41689;SDS011;27372;42.658;23.256;2024-03-25T07:09:03;10.73;;;6.75;;
41689;SDS011;27372;42.658;23.256;2024-03-25T07:11:28;6.85;;;4.28;;
41689;SDS011;27372;42.658;23.256;2024-03-25T07:13:54;10.48;;;6.25;;
41689;SDS011;27372;42.658;23.256;2024-03-25T07:16:19;9.05;;;6.07;;
41689;SDS011;27372;42.658;23.256;2024-03-25T07:18:44;11.85;;;6.18;;
41689;SDS011;27372;42.658;23.256;2024-03-25T07:21:10;10.10;;;6.43;;
41689;SDS011;27372;42.658;23.256;2024-03-25T07:23:35;9.93;;;6.03;;
41689;SDS011;27372;42.658;23.256;2024-03-25T07:26:02;9.00;;;5.97;;
41689;SDS011;27372;42.658;23.256;2024-03-25T07:28:28;9.02;;;5.10;;
41689;SDS011;27372;42.658;23.256;2024-03-25T07:30:53;11.18;;;6.90;;
41689;SDS011;27372;42.658;23.256;2024-03-25T07:33:19;10.50;;;7.18;;
41689;SDS011;27372;42.658;23.256;2024-03-25T07:35:44;10.23;;;5.82;;
41689;SDS011;27372;42.658;23.256;2024-03-25T07:38:31;10.27;;;6.50;;
41689;SDS011;27372;42.658;23.256;2024-03-25T07:41:02;10.20;;;6.75;;
41689;SDS011;27372;42.658;23.256;2024-03-25T07:43:29;9.23;;;6.63;;
41689;SDS011;27372;42.658;23.256;2024-03-25T07:45:55;10.05;;;6.30;;
41689;SDS011;27372;42.658;23.256;2024-03-25T07:48:20;9.10;;;5.93;;
41689;SDS011;27372;42.658;23.256;2024-03-25T07:50:45;9.00;;;5.97;;
41689;SDS011;27372;42.658;23.256;2024-03-25T07:53:11;9.27;;;5.47;;
41689;SDS011;27372;42.658;23.256;2024-03-25T07:55:37;9.55;;;6.07;;
41689;SDS011;27372;42.658;23.256;2024-03-25T07:58:02;9.45;;;5.35;;
41689;SDS011;27372;42.658;23.256;2024-03-25T08:00:28;7.10;;;4.82;;
41689;SDS011;27372;42.658;23.256;2024-03-25T08:02:53;10.43;;;6.38;;
41689;SDS011;27372;42.658;23.256;2024-03-25T08:05:19;8.70;;;5.95;;
41689;SDS011;27372;42.658;23.256;2024-03-25T08:07:44;10.13;;;6.10;;
41689;SDS011;27372;42.658;23.256;2024-03-25T08:10:10;10.50;;;6.80;;
41689;SDS011;27372;42.658;23.256;2024-03-25T08:12:35;9.93;;;6.18;;
41689;SDS011;27372;42.658;23.256;2024-03-25T08:15:01;9.40;;;6.38;;
41689;SDS011;27372;42.658;23.256;2024-03-25T08:17:26;8.93;;;6.13;;
41689;SDS011;27372;42.658;23.256;2024-03-25T08:19:52;8.80;;;5.70;;
41689;SDS011;27372;42.658;23.256;2024-03-25T08:22:17;7.35;;;5.72;;
41689;SDS011;27372;42.658;23.256;2024-03-25T08:24:42;8.50;;;5.47;;
41689;SDS011;27372;42.658;23.256;2024-03-25T08:27:08;8.50;;;5.82;;
41689;SDS011;27372;42.658;23.256;2024-03-25T08:29:33;7.07;;;4.93;;
41689;SDS011;27372;42.658;23.256;2024-03-25T08:31:59;7.15;;;5.00;;
41689;SDS011;27372;42.658;23.256;2024-03-25T08:34:24;8.00;;;5.53;;
41689;SDS011;27372;42.658;23.256;2024-03-25T08:36:49;8.57;;;5.70;;
41689;SDS011;27372;42.658;23.256;2024-03-25T08:39:15;7.93;;;5.82;;
41689;SDS011;27372;42.658;23.256;2024-03-25T08:41:40;7.05;;;5.05;;
41689;SDS011;27372;42.658;23.256;2024-03-25T08:44:06;7.03;;;4.88;;
41689;SDS011;27372;42.658;23.256;2024-03-25T08:46:31;8.77;;;5.97;;
41689;SDS011;27372;42.658;23.256;2024-03-25T08:48:57;6.88;;;5.40;;
41689;SDS011;27372;42.658;23.256;2024-03-25T08:51:23;9.40;;;5.88;;
41689;SDS011;27372;42.658;23.256;2024-03-25T08:53:48;7.88;;;5.60;;
41689;SDS011;27372;42.658;23.256;2024-03-25T08:56:15;6.15;;;4.65;;
41689;SDS011;27372;42.658;23.256;2024-03-25T08:58:40;7.63;;;4.90;;
41689;SDS011;27372;42.658;23.256;2024-03-25T09:01:05;11.38;;;5.65;;
41689;SDS011;27372;42.658;23.256;2024-03-25T09:03:31;7.78;;;5.70;;
41689;SDS011;27372;42.658;23.256;2024-03-25T09:05:58;7.65;;;5.35;;
41689;SDS011;27372;42.658;23.256;2024-03-25T09:08:23;7.88;;;5.10;;
41689;SDS011;27372;42.658;23.256;2024-03-25T09:10:49;7.68;;;5.72;;
41689;SDS011;27372;42.658;23.256;2024-03-25T09:13:32;7.55;;;5.35;;
41689;SDS011;27372;42.658;23.256;2024-03-25T09:15:58;6.93;;;5.03;;
41689;SDS011;27372;42.658;23.256;2024-03-25T09:18:23;8.50;;;6.18;;
41689;SDS011;27372;42.658;23.256;2024-03-25T09:20:49;9.80;;;5.93;;
41689;SDS011;27372;42.658;23.256;2024-03-25T09:23:14;8.25;;;5.88;;
41689;SDS011;27372;42.658;23.256;2024-03-25T09:25:39;7.75;;;5.78;;
41689;SDS011;27372;42.658;23.256;2024-03-25T09:28:05;8.85;;;5.88;;
41689;SDS011;27372;42.658;23.256;2024-03-25T09:30:31;10.82;;;6.10;;
41689;SDS011;27372;42.658;23.256;2024-03-25T09:32:57;8.73;;;5.70;;
41689;SDS011;27372;42.658;23.256;2024-03-25T09:35:22;8.65;;;5.93;;
41689;SDS011;27372;42.658;23.256;2024-03-25T09:37:48;9.82;;;5.68;;
41689;SDS011;27372;42.658;23.256;2024-03-25T09:40:13;8.73;;;5.90;;
41689;SDS011;27372;42.658;23.256;2024-03-25T09:45:16;7.75;;;5.32;;
41689;SDS011;27372;42.658;23.256;2024-03-25T09:47:45;7.72;;;5.90;;
41689;SDS011;27372;42.658;23.256;2024-03-25T09:50:15;7.18;;;5.35;;
41689;SDS011;27372;42.658;23.256;2024-03-25T09:52:47;7.50;;;5.53;;
41689;SDS011;27372;42.658;23.256;2024-03-25T09:55:15;6.85;;;5.00;;
41689;SDS011;27372;42.658;23.256;2024-03-25T09:57:42;5.63;;;4.53;;
41689;SDS011;27372;42.658;23.256;2024-03-25T10:00:08;6.13;;;4.60;;
41689;SDS011;27372;42.658;23.256;2024-03-25T10:02:36;6.85;;;4.93;;
41689;SDS011;27372;42.658;23.256;2024-03-25T10:05:03;6.00;;;3.55;;
41689;SDS011;27372;42.658;23.256;2024-03-25T10:07:30;5.43;;;3.65;;
41689;SDS011;27372;42.658;23.256;2024-03-25T10:09:57;7.00;;;4.72;;
41689;SDS011;27372;42.658;23.256;2024-03-25T10:12:23;8.48;;;4.88;;
41689;SDS011;27372;42.658;23.256;2024-03-25T10:14:49;7.53;;;5.32;;
41689;SDS011;27372;42.658;23.256;2024-03-25T10:17:15;6.38;;;4.65;;
41689;SDS011;27372;42.658;23.256;2024-03-25T10:19:40;5.88;;;4.40;;
41689;SDS011;27372;42.658;23.256;2024-03-25T10:22:06;5.50;;;4.22;;
41689;SDS011;27372;42.658;23.256;2024-03-25T10:24:42;5.75;;;4.10;;
41689;SDS011;27372;42.658;23.256;2024-03-25T10:27:16;6.78;;;4.18;;
41689;SDS011;27372;42.658;23.256;2024-03-25T10:29:42;7.40;;;4.15;;
41689;SDS011;27372;42.658;23.256;2024-03-25T10:32:07;6.53;;;4.45;;
41689;SDS011;27372;42.658;23.256;2024-03-25T10:34:33;5.85;;;3.97;;
41689;SDS011;27372;42.658;23.256;2024-03-25T10:36:58;4.07;;;3.30;;
41689;SDS011;27372;42.658;23.256;2024-03-25T10:39:26;6.57;;;3.50;;
41689;SDS011;27372;42.658;23.256;2024-03-25T10:41:56;3.75;;;3.30;;
41689;SDS011;27372;42.658;23.256;2024-03-25T10:44:25;5.30;;;3.65;;
41689;SDS011;27372;42.658;23.256;2024-03-25T10:47:01;5.93;;;4.35;;
41689;SDS011;27372;42.658;23.256;2024-03-25T10:52:13;4.22;;;3.42;;
41689;SDS011;27372;42.658;23.256;2024-03-25T10:54:40;5.05;;;3.53;;
41689;SDS011;27372;42.658;23.256;2024-03-25T10:57:07;3.35;;;2.83;;
41689;SDS011;27372;42.658;23.256;2024-03-25T10:59:34;3.42;;;2.60;;
41689;SDS011;27372;42.658;23.256;2024-03-25T11:02:06;5.22;;;3.80;;
41689;SDS011;27372;42.658;23.256;2024-03-25T11:04:32;4.40;;;3.38;;
41689;SDS011;27372;42.658;23.256;2024-03-25T11:07:07;5.75;;;3.70;;
41689;SDS011;27372;42.658;23.256;2024-03-25T11:09:37;3.92;;;3.30;;
41689;SDS011;27372;42.658;23.256;2024-03-25T11:12:03;3.25;;;2.95;;
41689;SDS011;27372;42.658;23.256;2024-03-25T11:14:29;4.60;;;3.50;;
41689;SDS011;27372;42.658;23.256;2024-03-25T11:16:57;4.10;;;3.30;;
41689;SDS011;27372;42.658;23.256;2024-03-25T11:19:29;4.65;;;3.08;;
41689;SDS011;27372;42.658;23.256;2024-03-25T11:22:06;4.03;;;3.00;;
41689;SDS011;27372;42.658;23.256;2024-03-25T11:24:34;3.95;;;3.00;;
41689;SDS011;27372;42.658;23.256;2024-03-25T11:27:06;3.95;;;3.20;;
41689;SDS011;27372;42.658;23.256;2024-03-25T11:29:32;4.63;;;3.33;;
41689;SDS011;27372;42.658;23.256;2024-03-25T11:31:59;4.88;;;3.55;;
41689;SDS011;27372;42.658;23.256;2024-03-25T11:34:28;3.70;;;2.90;;
41689;SDS011;27372;42.658;23.256;2024-03-25T11:36:53;4.05;;;2.95;;
41689;SDS011;27372;42.658;23.256;2024-03-25T11:39:21;4.88;;;3.38;;
41689;SDS011;27372;42.658;23.256;2024-03-25T11:41:47;4.30;;;2.97;;
41689;SDS011;27372;42.658;23.256;2024-03-25T11:44:13;4.47;;;3.38;;
41689;SDS011;27372;42.658;23.256;2024-03-25T11:46:39;4.53;;;3.40;;
41689;SDS011;27372;42.658;23.256;2024-03-25T11:49:12;3.60;;;2.95;;
41689;SDS011;27372;42.658;23.256;2024-03-25T11:51:40;5.00;;;3.33;;
41689;SDS011;27372;42.658;23.256;2024-03-25T11:54:10;4.40;;;2.88;;
41689;SDS011;27372;42.658;23.256;2024-03-25T11:56:36;4.40;;;3.47;;
41689;SDS011;27372;42.658;23.256;2024-03-25T11:59:02;4.13;;;3.05;;
41689;SDS011;27372;42.658;23.256;2024-03-25T12:01:28;5.30;;;3.10;;
41689;SDS011;27372;42.658;23.256;2024-03-25T12:03:54;3.65;;;2.83;;
41689;SDS011;27372;42.658;23.256;2024-03-25T12:06:20;3.15;;;2.60;;
41689;SDS011;27372;42.658;23.256;2024-03-25T12:08:45;2.85;;;2.55;;
41689;SDS011;27372;42.658;23.256;2024-03-25T12:11:29;2.97;;;2.65;;
41689;SDS011;27372;42.658;23.256;2024-03-25T12:13:54;4.88;;;2.70;;
41689;SDS011;27372;42.658;23.256;2024-03-25T12:16:20;3.33;;;2.63;;
41689;SDS011;27372;42.658;23.256;2024-03-25T12:18:45;3.50;;;2.80;;
41689;SDS011;27372;42.658;23.256;2024-03-25T12:21:11;3.30;;;2.33;;
41689;SDS011;27372;42.658;23.256;2024-03-25T12:23:36;3.53;;;2.58;;
41689;SDS011;27372;42.658;23.256;2024-03-25T12:26:02;4.40;;;2.72;;
41689;SDS011;27372;42.658;23.256;2024-03-25T12:28:31;3.78;;;2.70;;
41689;SDS011;27372;42.658;23.256;2024-03-25T12:30:56;2.65;;;2.28;;
41689;SDS011;27372;42.658;23.256;2024-03-25T12:33:22;3.83;;;2.70;;
41689;SDS011;27372;42.658;23.256;2024-03-25T12:35:49;4.18;;;2.85;;
41689;SDS011;27372;42.658;23.256;2024-03-25T12:38:24;3.83;;;2.72;;
41689;SDS011;27372;42.658;23.256;2024-03-25T12:40:51;3.00;;;2.67;;
41689;SDS011;27372;42.658;23.256;2024-03-25T12:43:16;3.15;;;2.67;;
41689;SDS011;27372;42.658;23.256;2024-03-25T12:45:42;3.22;;;2.70;;
41689;SDS011;27372;42.658;23.256;2024-03-25T12:48:08;2.80;;;2.30;;
41689;SDS011;27372;42.658;23.256;2024-03-25T12:50:34;2.63;;;2.42;;
41689;SDS011;27372;42.658;23.256;2024-03-25T12:53:00;5.35;;;2.40;;
41689;SDS011;27372;42.658;23.256;2024-03-25T12:55:25;3.50;;;2.70;;
41689;SDS011;27372;42.658;23.256;2024-03-25T12:57:50;4.10;;;2.80;;
41689;SDS011;27372;42.658;23.256;2024-03-25T13:00:16;3.50;;;2.75;;
41689;SDS011;27372;42.658;23.256;2024-03-25T13:02:42;8.75;;;2.97;;
41689;SDS011;27372;42.658;23.256;2024-03-25T13:05:07;3.35;;;2.60;;
41689;SDS011;27372;42.658;23.256;2024-03-25T13:07:33;4.38;;;3.22;;
41689;SDS011;27372;42.658;23.256;2024-03-25T13:09:58;3.17;;;2.83;;
41689;SDS011;27372;42.658;23.256;2024-03-25T13:12:24;6.00;;;3.55;;
41689;SDS011;27372;42.658;23.256;2024-03-25T13:14:49;3.58;;;2.88;;
41689;SDS011;27372;42.658;23.256;2024-03-25T13:17:14;4.72;;;3.45;;
41689;SDS011;27372;42.658;23.256;2024-03-25T13:19:40;5.00;;;3.50;;
41689;SDS011;27372;42.658;23.256;2024-03-25T13:22:05;5.95;;;3.13;;
41689;SDS011;27372;42.658;23.256;2024-03-25T13:24:31;4.07;;;3.10;;
41689;SDS011;27372;42.658;23.256;2024-03-25T13:26:56;5.20;;;2.83;;
41689;SDS011;27372;42.658;23.256;2024-03-25T13:29:22;4.35;;;2.78;;
41689;SDS011;27372;42.658;23.256;2024-03-25T13:31:48;3.60;;;2.45;;
41689;SDS011;27372;42.658;23.256;2024-03-25T13:34:14;5.60;;;3.17;;
41689;SDS011;27372;42.658;23.256;2024-03-25T13:36:39;6.20;;;3.70;;
41689;SDS011;27372;42.658;23.256;2024-03-25T13:39:05;5.82;;;3.47;;
41689;SDS011;27372;42.658;23.256;2024-03-25T13:41:30;3.53;;;2.83;;
41689;SDS011;27372;42.658;23.256;2024-03-25T13:43:56;4.63;;;3.03;;
41689;SDS011;27372;42.658;23.256;2024-03-25T13:46:21;2.80;;;2.50;;
41689;SDS011;27372;42.658;23.256;2024-03-25T13:48:47;5.72;;;3.45;;
41689;SDS011;27372;42.658;23.256;2024-03-25T13:51:13;4.72;;;3.00;;
41689;SDS011;27372;42.658;23.256;2024-03-25T13:53:38;3.40;;;2.67;;
41689;SDS011;27372;42.658;23.256;2024-03-25T13:56:03;3.33;;;2.55;;
41689;SDS011;27372;42.658;23.256;2024-03-25T13:58:31;3.92;;;2.58;;
41689;SDS011;27372;42.658;23.256;2024-03-25T14:00:56;3.70;;;1.90;;
41689;SDS011;27372;42.658;23.256;2024-03-25T14:03:22;2.33;;;2.00;;
41689;SDS011;27372;42.658;23.256;2024-03-25T14:05:48;3.00;;;2.00;;
41689;SDS011;27372;42.658;23.256;2024-03-25T14:08:13;3.38;;;1.67;;
41689;SDS011;27372;42.658;23.256;2024-03-25T14:10:38;3.47;;;1.80;;
41689;SDS011;27372;42.658;23.256;2024-03-25T14:13:04;2.30;;;1.63;;
41689;SDS011;27372;42.658;23.256;2024-03-25T14:15:30;4.40;;;1.90;;
41689;SDS011;27372;42.658;23.256;2024-03-25T14:17:56;3.20;;;1.77;;
41689;SDS011;27372;42.658;23.256;2024-03-25T14:20:22;2.05;;;1.60;;
41689;SDS011;27372;42.658;23.256;2024-03-25T14:22:54;2.53;;;1.90;;
41689;SDS011;27372;42.658;23.256;2024-03-25T14:25:21;3.38;;;1.90;;
41689;SDS011;27372;42.658;23.256;2024-03-25T14:27:46;4.20;;;1.70;;
41689;SDS011;27372;42.658;23.256;2024-03-25T14:30:12;2.80;;;1.95;;
41689;SDS011;27372;42.658;23.256;2024-03-25T14:32:40;1.63;;;1.50;;
41689;SDS011;27372;42.658;23.256;2024-03-25T14:35:05;4.65;;;1.70;;
41689;SDS011;27372;42.658;23.256;2024-03-25T14:37:32;3.55;;;1.92;;